createdAt,value
2022-10-22T00:02:08.169Z,28.13
2022-10-22T00:04:54.636Z,26.90
2022-10-22T00:07:40.599Z,29.27
2022-10-22T00:10:26.473Z,32.45
2022-10-22T00:13:13.191Z,36.00
2022-10-22T00:15:58.869Z,35.47
2022-10-22T00:18:44.421Z,31.95
2022-10-22T00:21:30.764Z,36.17
2022-10-22T00:24:16.982Z,35.63
2022-10-22T00:27:04.112Z,39.05
2022-10-22T00:29:50.425Z,33.03
2022-10-22T00:32:36.072Z,40.08
2022-10-22T00:35:22.129Z,41.75
2022-10-22T00:38:07.952Z,43.95
2022-10-22T00:40:54.411Z,45.22
2022-10-22T00:44:00.357Z,47.08
2022-10-22T00:46:46.006Z,41.35
2022-10-22T00:49:31.527Z,47.08
2022-10-22T00:52:17.707Z,48.75
2022-10-22T00:55:03.553Z,45.30
2022-10-22T00:57:50.001Z,47.60
2022-10-22T01:00:36.079Z,43.65
2022-10-22T01:03:22.504Z,45.85
2022-10-22T01:06:08.367Z,51.25
2022-10-22T01:09:19.399Z,45.65
2022-10-22T01:12:05.084Z,54.30
2022-10-22T01:15:12.912Z,42.42
2022-10-22T01:18:03.433Z,46.80
2022-10-22T01:21:19.197Z,45.03
2022-10-22T01:24:13.790Z,51.53
2022-10-22T01:27:23.878Z,49.30
2022-10-22T01:30:14.443Z,48.40
2022-10-22T01:33:04.025Z,56.85
2022-10-22T01:35:50.202Z,48.47
2022-10-22T01:38:36.465Z,64.35
2022-10-22T01:41:21.855Z,58.15
2022-10-22T01:44:07.617Z,63.25
2022-10-22T01:47:05.190Z,57.55
2022-10-22T01:50:10.028Z,42.65
2022-10-22T01:53:17.359Z,52.90
2022-10-22T01:56:15.562Z,43.90
2022-10-22T01:59:25.204Z,43.83
2022-10-22T02:02:17.456Z,49.92
2022-10-22T02:05:11.859Z,42.80
2022-10-22T02:08:03.426Z,40.95
2022-10-22T02:10:49.713Z,41.25
2022-10-22T02:13:41.650Z,51.88
2022-10-22T02:16:34.608Z,48.55
2022-10-22T02:19:25.906Z,49.63
2022-10-22T02:22:11.517Z,41.22
2022-10-22T02:24:57.730Z,39.47
2022-10-22T02:27:52.180Z,42.13
2022-10-22T02:30:41.507Z,39.53
2022-10-22T02:33:30.828Z,39.28
2022-10-22T02:36:17.439Z,37.67
2022-10-22T02:39:03.867Z,41.47
2022-10-22T02:41:50.102Z,33.17
2022-10-22T02:44:35.686Z,38.33
2022-10-22T02:47:22.386Z,38.13
2022-10-22T02:50:10.309Z,36.28
2022-10-22T02:52:56.816Z,34.78
2022-10-22T02:55:43.023Z,41.22
2022-10-22T02:58:29.642Z,36.83
2022-10-22T03:01:16.247Z,35.05
2022-10-22T03:04:02.578Z,36.70
2022-10-22T03:06:49.101Z,32.03
2022-10-22T03:09:35.287Z,31.52
2022-10-22T03:12:21.353Z,31.00
2022-10-22T03:15:07.195Z,33.05
2022-10-22T03:17:52.696Z,32.92
2022-10-22T03:20:39.038Z,34.10
2022-10-22T03:23:24.495Z,33.30
2022-10-22T03:26:12.683Z,32.25
2022-10-22T03:28:58.225Z,37.08
2022-10-22T03:31:44.163Z,35.58
2022-10-22T03:34:29.660Z,38.13
2022-10-22T03:37:15.258Z,47.08
2022-10-22T03:40:01.094Z,47.85
2022-10-22T03:42:47.241Z,38.17
2022-10-22T03:45:32.658Z,39.17
2022-10-22T03:48:18.710Z,38.30
2022-10-22T03:51:04.530Z,39.92
2022-10-22T03:53:50.704Z,44.35
2022-10-22T03:56:36.556Z,37.28
2022-10-22T03:59:22.166Z,40.65
2022-10-22T04:02:07.866Z,38.92
2022-10-22T04:04:53.625Z,42.88
2022-10-22T04:07:39.213Z,37.88
2022-10-22T04:10:25.737Z,38.97
2022-10-22T04:13:11.302Z,45.17
2022-10-22T04:16:16.244Z,40.90
2022-10-22T04:19:02.115Z,47.10
2022-10-22T04:21:48.387Z,44.92
2022-10-22T04:24:34.134Z,47.85
2022-10-22T04:27:19.769Z,53.72
2022-10-22T04:30:06.728Z,54.03
2022-10-22T04:32:52.877Z,49.75
2022-10-22T04:35:39.847Z,57.28
2022-10-22T04:38:25.603Z,55.03
2022-10-22T04:41:16.432Z,50.55
2022-10-22T04:44:02.749Z,50.97
2022-10-22T04:46:48.434Z,60.67
2022-10-22T04:49:34.224Z,54.10
2022-10-22T04:52:20.033Z,47.95
2022-10-22T04:55:05.849Z,50.33
2022-10-22T04:57:51.358Z,49.85
2022-10-22T05:00:37.545Z,61.03
2022-10-22T05:03:25.156Z,57.75
2022-10-22T05:09:01.890Z,55.28
2022-10-22T05:11:50.803Z,57.47
2022-10-22T05:14:36.280Z,58.10
2022-10-22T05:17:22.103Z,59.67
2022-10-22T05:20:08.482Z,57.92
2022-10-22T05:22:54.301Z,47.85
2022-10-22T05:25:39.900Z,62.63
2022-10-22T05:28:25.408Z,51.47
2022-10-22T05:31:12.405Z,58.92
2022-10-22T05:33:58.090Z,55.47
2022-10-22T05:36:43.744Z,55.92
2022-10-22T05:39:29.840Z,49.67
2022-10-22T05:42:15.780Z,57.00
2022-10-22T05:45:01.434Z,49.55
2022-10-22T05:47:46.839Z,51.33
2022-10-22T05:50:32.840Z,49.58
2022-10-22T05:53:18.584Z,52.63
2022-10-22T05:56:07.845Z,55.03
2022-10-22T05:58:53.990Z,57.90
2022-10-22T06:01:41.009Z,61.83
2022-10-22T06:04:26.726Z,58.67
2022-10-22T06:07:15.363Z,60.45
2022-10-22T06:10:01.137Z,57.60
2022-10-22T06:12:48.328Z,56.13
2022-10-22T06:15:34.274Z,57.33
2022-10-22T06:18:20.561Z,49.72
2022-10-22T06:21:11.571Z,54.08
2022-10-22T06:23:58.669Z,48.35
2022-10-22T06:26:44.946Z,51.95
2022-10-22T06:29:30.596Z,53.28
2022-10-22T06:32:16.228Z,55.65
2022-10-22T06:35:02.247Z,46.83
2022-10-22T06:37:47.911Z,52.70
2022-10-22T06:40:33.987Z,60.22
2022-10-22T06:43:19.684Z,59.88
2022-10-22T06:46:08.844Z,58.40
2022-10-22T06:48:57.352Z,57.55
2022-10-22T06:51:43.330Z,63.55
2022-10-22T06:54:28.944Z,50.30
2022-10-22T06:57:14.820Z,62.17
2022-10-22T07:00:00.238Z,66.75
2022-10-22T07:02:56.405Z,59.75
2022-10-22T07:05:44.486Z,58.28
2022-10-22T07:08:30.789Z,73.57
2022-10-22T07:11:17.525Z,119.05
2022-10-22T07:14:04.103Z,77.13
2022-10-22T07:16:49.978Z,136.27
2022-10-22T07:19:35.828Z,160.30
2022-10-22T07:22:21.886Z,183.57
2022-10-22T07:25:08.669Z,152.38
2022-10-22T07:27:54.519Z,189.13
2022-10-22T07:30:40.545Z,134.98
2022-10-22T07:33:27.175Z,131.95
2022-10-22T07:36:17.774Z,131.00
2022-10-22T07:39:04.192Z,104.57
2022-10-22T07:41:50.671Z,100.95
2022-10-22T07:44:36.331Z,119.45
2022-10-22T07:47:22.457Z,126.97
2022-10-22T07:50:08.355Z,94.30
2022-10-22T07:52:56.120Z,72.88
2022-10-22T07:55:43.733Z,88.32
2022-10-22T07:58:29.707Z,80.45
2022-10-22T08:01:15.380Z,126.97
2022-10-22T08:04:01.556Z,134.73
2022-10-22T08:06:47.472Z,133.73
2022-10-22T08:09:33.920Z,126.30
2022-10-22T08:12:19.369Z,140.30
2022-10-22T08:15:06.328Z,162.27
2022-10-22T08:17:52.098Z,136.60
2022-10-22T08:20:38.217Z,150.52
2022-10-22T08:23:27.496Z,160.50
2022-10-22T08:28:59.956Z,94.95
2022-10-22T08:31:46.037Z,109.05
2022-10-22T08:34:31.530Z,87.35
2022-10-22T08:37:17.912Z,91.32
2022-10-22T08:40:04.706Z,83.82
2022-10-22T08:43:04.829Z,122.80
2022-10-22T08:46:01.505Z,110.70
2022-10-22T08:49:13.037Z,103.88
2022-10-22T08:51:59.623Z,81.15
2022-10-22T08:54:52.266Z,73.93
2022-10-22T08:57:42.778Z,107.18
2022-10-22T09:00:54.051Z,67.70
2022-10-22T09:03:51.307Z,83.60
2022-10-22T09:06:38.148Z,68.38
2022-10-22T09:09:36.139Z,97.57
2022-10-22T09:12:22.878Z,114.35
2022-10-22T09:15:13.751Z,69.18
2022-10-22T09:20:58.549Z,107.88
2022-10-22T09:23:50.642Z,97.35
2022-10-22T09:26:38.090Z,122.85
2022-10-22T09:29:31.979Z,104.93
2022-10-22T09:32:18.767Z,108.47
2022-10-22T09:35:04.931Z,94.68
2022-10-22T09:37:55.510Z,107.55
2022-10-22T09:43:32.806Z,111.32
2022-10-22T09:46:21.760Z,120.18
2022-10-22T09:49:13.804Z,193.35
2022-10-22T09:52:00.942Z,94.18
2022-10-22T09:54:46.671Z,159.23
2022-10-22T09:57:32.844Z,106.05
2022-10-22T10:00:19.268Z,71.07
2022-10-22T10:03:04.975Z,60.17
2022-10-22T10:05:54.759Z,62.45
2022-10-22T10:08:40.588Z,94.18
2022-10-22T10:11:37.613Z,74.70
2022-10-22T10:14:37.823Z,101.60
2022-10-22T10:17:40.186Z,91.88
2022-10-22T10:21:07.897Z,77.90
2022-10-22T10:24:12.432Z,121.38
2022-10-22T10:27:01.075Z,75.40
2022-10-22T10:30:01.453Z,122.03
2022-10-22T10:33:06.267Z,127.22
2022-10-22T10:36:03.135Z,108.13
2022-10-22T10:38:54.896Z,109.47
2022-10-22T10:41:40.550Z,116.85
2022-10-22T10:45:00.262Z,82.35
2022-10-22T10:48:10.896Z,92.10
2022-10-22T10:51:28.603Z,68.47
2022-10-22T10:54:29.704Z,90.13
2022-10-22T10:57:34.546Z,62.90
2022-10-22T11:00:21.574Z,74.95
2022-10-22T11:03:46.528Z,66.25
2022-10-22T11:06:34.219Z,113.47
2022-10-22T11:09:30.368Z,107.43
2022-10-22T11:12:23.522Z,168.63
2022-10-22T11:15:19.546Z,145.13
2022-10-22T11:18:20.998Z,102.18
2022-10-22T11:21:13.357Z,61.80
2022-10-22T11:24:08.416Z,73.95
2022-10-22T11:26:56.490Z,99.78
2022-10-22T11:29:47.446Z,96.65
2022-10-22T11:32:33.597Z,104.30
2022-10-22T11:35:27.211Z,107.00
2022-10-22T11:38:17.400Z,116.57
2022-10-22T11:41:11.608Z,173.45
2022-10-22T11:44:07.823Z,176.25
2022-10-22T11:46:53.457Z,289.65
2022-10-22T11:49:55.081Z,190.02
2022-10-22T11:52:46.065Z,158.05
2022-10-22T11:55:34.500Z,119.82
2022-10-22T11:58:29.613Z,72.20
2022-10-22T12:01:45.218Z,59.97
2022-10-22T12:04:41.540Z,53.30
2022-10-22T12:07:47.083Z,104.50
2022-10-22T12:10:48.782Z,46.88
2022-10-22T12:13:58.796Z,79.35
2022-10-22T12:16:58.090Z,44.50
2022-10-22T12:19:50.162Z,51.28
2022-10-22T12:22:39.372Z,44.35
2022-10-22T12:25:35.479Z,51.63
2022-10-22T12:28:21.731Z,48.45
2022-10-22T12:31:16.149Z,41.10
2022-10-22T12:34:01.718Z,44.08
2022-10-22T12:36:48.902Z,92.03
2022-10-22T12:39:35.607Z,92.07
2022-10-22T12:42:24.028Z,236.80
2022-10-22T12:45:09.957Z,292.73
2022-10-22T12:47:58.258Z,216.25
2022-10-22T12:50:47.361Z,127.88
2022-10-22T12:53:33.451Z,69.93
2022-10-22T12:56:48.341Z,47.83
2022-10-22T12:59:38.383Z,44.33
2022-10-22T13:02:26.647Z,57.55
2022-10-22T13:05:17.248Z,67.90
2022-10-22T13:08:04.383Z,53.78
2022-10-22T13:10:53.176Z,46.25
2022-10-22T13:13:38.796Z,48.38
2022-10-22T13:16:27.762Z,47.90
2022-10-22T13:19:42.500Z,54.05
2022-10-22T13:22:39.921Z,48.72
2022-10-22T13:25:38.574Z,52.53
2022-10-22T13:28:25.150Z,41.80
2022-10-22T13:31:32.254Z,61.72
2022-10-22T13:34:19.974Z,42.22
2022-10-22T13:37:09.270Z,60.10
2022-10-22T13:39:56.001Z,57.50
2022-10-22T13:42:41.973Z,73.72
2022-10-22T13:45:29.288Z,87.28
2022-10-22T13:48:16.600Z,64.07
2022-10-22T13:51:03.162Z,73.72
2022-10-22T13:53:50.995Z,92.13
2022-10-22T13:56:37.217Z,50.42
2022-10-22T13:59:23.892Z,46.80
2022-10-22T14:02:14.367Z,46.92
2022-10-22T14:05:03.301Z,50.13
2022-10-22T14:07:49.807Z,54.85
2022-10-22T14:10:35.589Z,48.78
2022-10-22T14:13:21.939Z,46.30
2022-10-22T14:16:11.500Z,44.60
2022-10-22T14:18:57.887Z,48.07
2022-10-22T14:21:43.897Z,47.92
2022-10-22T14:24:29.976Z,48.90
2022-10-22T14:27:15.603Z,42.80
2022-10-22T14:30:01.281Z,43.28
2022-10-22T14:32:48.842Z,39.03
2022-10-22T14:35:34.693Z,37.35
2022-10-22T14:38:20.392Z,41.30
2022-10-22T14:41:17.058Z,39.10
2022-10-22T14:44:03.257Z,39.70
2022-10-22T14:46:50.179Z,42.95
2022-10-22T14:49:35.781Z,46.15
2022-10-22T14:52:21.934Z,46.38
2022-10-22T14:55:12.240Z,41.53
2022-10-22T15:00:44.034Z,61.63
2022-10-22T15:03:30.436Z,59.90
2022-10-22T15:06:15.864Z,61.85
2022-10-22T15:09:02.426Z,63.35
2022-10-22T15:11:48.277Z,61.63
2022-10-22T15:14:34.162Z,71.53
2022-10-22T15:17:19.834Z,65.97
2022-10-22T15:20:06.219Z,61.97
2022-10-22T15:22:51.866Z,79.60
2022-10-22T15:25:38.261Z,51.65
2022-10-22T15:28:24.410Z,43.70
2022-10-22T15:31:14.173Z,40.72
2022-10-22T15:34:01.792Z,57.13
2022-10-22T15:36:48.004Z,50.53
2022-10-22T15:39:34.089Z,44.47
2022-10-22T15:42:20.107Z,50.38
2022-10-22T15:45:06.423Z,49.00
2022-10-22T15:47:52.461Z,53.78
2022-10-22T15:50:38.870Z,42.95
2022-10-22T15:53:24.666Z,62.53
2022-10-22T15:56:11.840Z,36.28
2022-10-22T15:59:05.151Z,53.42
2022-10-22T16:01:51.572Z,51.70
2022-10-22T16:04:38.433Z,46.35
2022-10-22T16:07:24.927Z,47.95
2022-10-22T16:10:12.885Z,64.97
2022-10-22T16:12:58.874Z,64.93
2022-10-22T16:15:44.720Z,47.30
2022-10-22T16:18:30.273Z,54.55
2022-10-22T16:21:16.128Z,49.63
2022-10-22T16:24:06.102Z,52.65
2022-10-22T16:26:53.350Z,98.70
2022-10-22T16:29:39.686Z,56.85
2022-10-22T16:32:25.654Z,44.97
2022-10-22T16:35:11.094Z,64.38
2022-10-22T16:37:57.152Z,58.78
2022-10-22T16:40:42.659Z,49.05
2022-10-22T16:43:29.266Z,46.65
2022-10-22T16:46:16.310Z,62.15
2022-10-22T16:49:02.897Z,57.25
2022-10-22T16:51:48.435Z,52.35
2022-10-22T16:54:34.000Z,54.70
2022-10-22T16:57:19.501Z,50.80
2022-10-22T17:00:06.405Z,58.85
2022-10-22T17:02:53.425Z,50.15
2022-10-22T17:05:39.588Z,55.65
2022-10-22T17:08:25.629Z,59.35
2022-10-22T17:11:13.795Z,70.25
2022-10-22T17:13:59.225Z,58.85
2022-10-22T17:16:48.974Z,70.15
2022-10-22T17:19:38.660Z,68.15
2022-10-22T17:22:24.813Z,66.63
2022-10-22T17:25:17.822Z,57.30
2022-10-22T17:28:03.923Z,74.15
2022-10-22T17:30:49.473Z,61.13
2022-10-22T17:33:36.338Z,71.97
2022-10-22T17:36:24.158Z,65.07
2022-10-22T17:39:13.961Z,63.42
2022-10-22T17:41:59.475Z,62.65
2022-10-22T17:44:45.572Z,65.80
2022-10-22T17:47:31.064Z,54.10
2022-10-22T17:50:17.122Z,55.53
2022-10-22T17:53:02.613Z,59.55
2022-10-22T17:55:48.688Z,63.67
2022-10-22T17:58:34.237Z,57.92
2022-10-22T18:01:22.082Z,63.38
2022-10-22T18:04:08.716Z,61.63
2022-10-22T18:06:55.016Z,74.20
2022-10-22T18:09:40.838Z,72.22
2022-10-22T18:12:26.554Z,74.68
2022-10-22T18:15:12.037Z,74.13
2022-10-22T18:17:57.888Z,67.05
2022-10-22T18:20:48.982Z,63.22
2022-10-22T18:23:34.941Z,67.95
2022-10-22T18:26:25.807Z,87.13
2022-10-22T18:29:16.071Z,64.85
2022-10-22T18:32:01.669Z,78.80
2022-10-22T18:34:48.159Z,75.43
2022-10-22T18:37:36.093Z,60.95
2022-10-22T18:40:22.405Z,62.83
2022-10-22T18:43:08.225Z,72.25
2022-10-22T18:45:54.071Z,71.22
2022-10-22T18:48:39.687Z,92.35
2022-10-22T18:51:30.525Z,77.10
2022-10-22T18:54:23.227Z,66.95
2022-10-22T18:57:09.646Z,65.53
2022-10-22T18:59:58.578Z,61.97
2022-10-22T19:02:45.369Z,52.05
2022-10-22T19:05:31.075Z,64.38
2022-10-22T19:08:18.109Z,67.20
2022-10-22T19:11:10.340Z,61.97
2022-10-22T19:13:56.430Z,59.60
2022-10-22T19:16:42.011Z,64.47
2022-10-22T19:19:28.139Z,59.17
2022-10-22T19:22:14.001Z,62.03
2022-10-22T19:24:59.573Z,61.88
2022-10-22T19:27:45.431Z,56.03
2022-10-22T19:30:31.822Z,63.85
2022-10-22T19:33:17.728Z,66.60
2022-10-22T19:36:06.959Z,64.60
2022-10-22T19:38:52.544Z,64.80
2022-10-22T19:41:38.902Z,58.63
2022-10-22T19:44:24.867Z,54.05
2022-10-22T19:47:11.532Z,55.97
2022-10-22T19:49:57.164Z,59.10
2022-10-22T19:52:43.380Z,54.67
2022-10-22T19:55:29.342Z,60.83
2022-10-22T19:58:15.942Z,63.97
2022-10-22T20:01:09.269Z,60.25
2022-10-22T20:03:55.526Z,56.35
2022-10-22T20:06:41.008Z,62.08
2022-10-22T20:09:27.073Z,55.25
2022-10-22T20:12:12.732Z,53.50
2022-10-22T20:14:58.803Z,62.70
2022-10-22T20:17:45.383Z,54.72
2022-10-22T20:20:37.685Z,61.60
2022-10-22T20:23:23.529Z,65.13
2022-10-22T20:26:09.733Z,66.75
2022-10-22T20:28:56.276Z,70.47
2022-10-22T20:31:42.730Z,62.20
2022-10-22T20:34:28.739Z,61.05
2022-10-22T20:37:14.387Z,59.15
2022-10-22T20:39:59.956Z,57.42
2022-10-22T20:42:47.239Z,63.47
2022-10-22T20:45:32.725Z,64.88
2022-10-22T20:48:18.602Z,67.65
2022-10-22T20:51:05.007Z,64.10
2022-10-22T20:53:51.480Z,74.30
2022-10-22T20:56:39.117Z,62.53
2022-10-22T20:59:32.382Z,62.17
2022-10-22T21:02:18.035Z,57.83
2022-10-22T21:05:03.768Z,56.10
2022-10-22T21:07:49.268Z,62.33
2022-10-22T21:10:35.002Z,54.75
2022-10-22T21:13:20.579Z,49.53
2022-10-22T21:16:11.444Z,54.65
2022-10-22T21:18:57.157Z,59.53
2022-10-22T21:21:42.621Z,47.72
2022-10-22T21:24:28.159Z,52.97
2022-10-22T21:27:13.963Z,55.45
2022-10-22T21:30:00.394Z,47.53
2022-10-22T21:32:46.405Z,47.13
2022-10-22T21:35:33.349Z,46.53
2022-10-22T21:38:19.833Z,49.65
2022-10-22T21:41:07.304Z,46.63
2022-10-22T21:43:53.158Z,44.47
2022-10-22T21:46:38.616Z,50.88
2022-10-22T21:49:24.973Z,45.03
2022-10-22T21:52:10.428Z,44.67
2022-10-22T21:54:56.855Z,42.97
2022-10-22T21:57:42.718Z,44.97
2022-10-22T22:00:28.872Z,42.55
2022-10-22T22:03:14.566Z,40.92
2022-10-22T22:06:02.154Z,45.20
2022-10-22T22:08:48.323Z,43.88
2022-10-22T22:11:34.380Z,40.70
2022-10-22T22:14:19.730Z,41.63
2022-10-22T22:17:05.635Z,39.92
2022-10-22T22:19:51.011Z,42.15
2022-10-22T22:22:36.874Z,43.13
2022-10-22T22:25:22.274Z,42.97
2022-10-22T22:28:07.969Z,46.72
2022-10-22T22:30:53.464Z,40.25
2022-10-22T22:33:39.717Z,41.05
2022-10-22T22:36:25.193Z,44.47
2022-10-22T22:39:12.705Z,47.00
2022-10-22T22:41:59.502Z,45.97
2022-10-22T22:44:46.463Z,47.90
2022-10-22T22:47:32.286Z,49.92
2022-10-22T22:50:18.471Z,48.13
2022-10-22T22:53:03.899Z,46.65
2022-10-22T22:55:50.416Z,54.28
2022-10-22T22:58:37.807Z,49.58
2022-10-22T23:01:29.751Z,57.22
2022-10-22T23:04:19.090Z,81.85
2022-10-22T23:07:05.008Z,67.82
2022-10-22T23:09:50.406Z,102.28
2022-10-22T23:12:36.216Z,100.53
2022-10-22T23:15:21.953Z,98.45
2022-10-22T23:18:07.460Z,56.83
2022-10-22T23:20:53.417Z,62.50
2022-10-22T23:23:43.052Z,108.53
2022-10-22T23:26:49.465Z,91.53
2022-10-22T23:29:36.425Z,77.45
2022-10-22T23:32:21.992Z,82.38
2022-10-22T23:35:09.490Z,54.15
2022-10-22T23:37:54.951Z,60.97
2022-10-22T23:40:40.701Z,57.50
2022-10-22T23:43:27.113Z,62.97
2022-10-22T23:46:14.198Z,85.05
2022-10-22T23:49:00.466Z,73.57
2022-10-22T23:51:46.619Z,63.15
2022-10-22T23:54:32.335Z,71.28
2022-10-22T23:57:18.759Z,48.95
